createdAt,value
2023-02-18T00:00:39.841Z,3.7
2023-02-18T00:03:41.851Z,4.5
2023-02-18T00:06:43.751Z,4.2
2023-02-18T00:09:45.726Z,5.3
2023-02-18T00:12:47.670Z,4.7
2023-02-18T00:15:49.668Z,5
2023-02-18T00:18:51.596Z,4.7
2023-02-18T00:21:53.567Z,4.4
2023-02-18T00:24:55.523Z,4.7
2023-02-18T00:27:57.484Z,3.6
2023-02-18T00:30:59.436Z,3.2
2023-02-18T00:34:01.404Z,2.9
2023-02-18T00:37:03.373Z,1.7
2023-02-18T00:40:05.320Z,2
2023-02-18T00:43:07.262Z,2.1
2023-02-18T00:46:09.560Z,1.6
2023-02-18T00:49:11.207Z,1.6
2023-02-18T00:52:13.156Z,1.9
2023-02-18T00:55:15.102Z,2.3
2023-02-18T00:58:17.089Z,2.8
2023-02-18T01:01:19.063Z,3.7
2023-02-18T01:04:21.022Z,3
2023-02-18T01:07:22.970Z,3.1
2023-02-18T01:10:24.930Z,3.3
2023-02-18T01:13:26.892Z,2.8
2023-02-18T01:16:28.967Z,2.7
2023-02-18T01:19:30.831Z,2.7
2023-02-18T01:22:32.777Z,3.5
2023-02-18T01:25:34.729Z,3.6
2023-02-18T01:28:36.697Z,4.4
2023-02-18T01:31:38.730Z,3.6
2023-02-18T01:34:40.669Z,3.5
2023-02-18T01:37:42.604Z,3.1
2023-02-18T01:40:44.558Z,2.9
2023-02-18T01:43:46.518Z,2.8
2023-02-18T01:46:48.546Z,2.8
2023-02-18T01:49:50.427Z,2.5
2023-02-18T01:52:52.384Z,2.8
2023-02-18T01:55:54.342Z,2.3
2023-02-18T01:58:56.308Z,3
2023-02-18T02:01:58.361Z,2.9
2023-02-18T02:05:00.235Z,3.4
2023-02-18T02:08:02.185Z,2.9
2023-02-18T02:11:04.152Z,2.1
2023-02-18T02:14:06.115Z,1.9
2023-02-18T02:17:08.082Z,1.7
2023-02-18T02:20:10.052Z,1.7
2023-02-18T02:23:12.019Z,1.7
2023-02-18T02:26:13.968Z,1.5
2023-02-18T02:29:15.957Z,1.7
2023-02-18T02:32:17.903Z,1.4
2023-02-18T02:35:19.881Z,1.4
2023-02-18T02:38:21.837Z,1.7
2023-02-18T02:41:23.795Z,1.8
2023-02-18T02:44:25.765Z,1.4
2023-02-18T02:47:27.716Z,1.1
2023-02-18T02:50:29.672Z,1.1
2023-02-18T02:53:31.629Z,1.1
2023-02-18T02:56:33.595Z,1
2023-02-18T02:59:35.572Z,0.8
2023-02-18T03:02:37.515Z,1.2
2023-02-18T03:05:39.481Z,0.9
2023-02-18T03:08:41.425Z,0.8
2023-02-18T03:11:43.389Z,0.8
2023-02-18T03:14:45.357Z,0.5
2023-02-18T03:17:47.314Z,0.6
2023-02-18T03:20:49.298Z,0.7
2023-02-18T03:23:51.266Z,0.8
2023-02-18T03:26:53.210Z,0.8
2023-02-18T03:29:55.206Z,0.6
2023-02-18T03:32:57.162Z,0.7
2023-02-18T03:35:59.121Z,0.6
2023-02-18T03:39:01.070Z,0.6
2023-02-18T03:42:03.046Z,0.6
2023-02-18T03:45:05.010Z,0.7
2023-02-18T03:48:06.972Z,0.8
2023-02-18T03:51:08.937Z,0.7
2023-02-18T03:54:10.923Z,0.7
2023-02-18T03:57:12.876Z,0.7
2023-02-18T04:00:14.853Z,0.6
2023-02-18T04:03:16.817Z,0.7
2023-02-18T04:06:18.760Z,0.7
2023-02-18T04:09:20.730Z,0.8
2023-02-18T04:12:24.222Z,0.7
2023-02-18T04:15:24.704Z,0.8
2023-02-18T04:18:26.666Z,0.6
2023-02-18T04:21:28.626Z,0.8
2023-02-18T04:24:30.574Z,0.8
2023-02-18T04:27:32.587Z,0.8
2023-02-18T04:30:34.586Z,1
2023-02-18T04:33:36.470Z,0.8
2023-02-18T04:36:38.421Z,0.9
2023-02-18T04:39:40.378Z,1.3
2023-02-18T04:42:42.350Z,0.7
2023-02-18T04:45:44.381Z,0.9
2023-02-18T04:48:46.288Z,0.7
2023-02-18T04:51:48.260Z,1
2023-02-18T04:54:50.216Z,0.8
2023-02-18T04:57:52.185Z,0.9
2023-02-18T05:00:54.147Z,0.7
2023-02-18T05:03:56.103Z,1.1
2023-02-18T05:06:58.047Z,1.1
2023-02-18T05:09:59.998Z,1.1
2023-02-18T05:13:01.958Z,1.4
2023-02-18T05:16:04.014Z,1.8
2023-02-18T05:19:05.884Z,1.5
2023-02-18T05:22:07.842Z,1.6
2023-02-18T05:25:10.045Z,1.7
2023-02-18T05:28:11.778Z,2.2
2023-02-18T05:31:13.850Z,1.7
2023-02-18T05:34:15.702Z,2.1
2023-02-18T05:37:17.672Z,1.7
2023-02-18T05:40:19.633Z,1.8
2023-02-18T05:43:21.599Z,1.8
2023-02-18T05:46:23.622Z,1.5
2023-02-18T05:49:25.535Z,1.4
2023-02-18T05:52:27.492Z,1.3
2023-02-18T05:55:29.452Z,1.5
2023-02-18T05:58:31.455Z,1.3
2023-02-18T06:01:33.399Z,1.5
2023-02-18T06:04:35.379Z,1.5
2023-02-18T06:07:37.336Z,2.1
2023-02-18T06:10:39.289Z,1.6
2023-02-18T06:13:41.260Z,1.6
2023-02-18T06:16:43.225Z,1.7
2023-02-18T06:19:45.182Z,1.6
2023-02-18T06:22:47.131Z,1.6
2023-02-18T06:25:49.091Z,1.4
2023-02-18T06:28:51.075Z,1.7
2023-02-18T06:31:53.175Z,1.6
2023-02-18T06:34:54.995Z,1.5
2023-02-18T06:37:56.957Z,1.6
2023-02-18T06:40:58.947Z,1.7
2023-02-18T06:44:00.894Z,1.6
2023-02-18T06:47:02.851Z,1.6
2023-02-18T06:50:04.819Z,1.5
2023-02-18T06:53:06.770Z,1.6
2023-02-18T06:56:08.954Z,1.8
2023-02-18T06:59:10.704Z,1.5
2023-02-18T07:02:12.659Z,1.6
2023-02-18T07:05:14.603Z,2
2023-02-18T07:08:16.575Z,1.6
2023-02-18T07:11:18.572Z,1.7
2023-02-18T07:14:20.535Z,1.7
2023-02-18T07:17:22.504Z,1.8
2023-02-18T07:20:24.479Z,1.6
2023-02-18T07:23:26.410Z,1.7
2023-02-18T07:26:28.382Z,1.5
2023-02-18T07:29:30.317Z,1.5
2023-02-18T07:32:32.280Z,1.7
2023-02-18T07:35:34.269Z,1.5
2023-02-18T07:38:36.217Z,1.4
2023-02-18T07:41:38.172Z,1.2
2023-02-18T07:44:40.354Z,1.2
2023-02-18T07:47:42.159Z,0.9
2023-02-18T07:50:44.084Z,0.9
2023-02-18T07:53:46.033Z,1.1
2023-02-18T07:56:48.010Z,1.3
2023-02-18T07:59:49.949Z,1.4
2023-02-18T08:02:51.935Z,1.2
2023-02-18T08:05:53.888Z,1.3
2023-02-18T08:08:55.846Z,1.1
2023-02-18T08:11:57.800Z,1.5
2023-02-18T08:14:59.787Z,1.5
2023-02-18T08:18:01.740Z,1.5
2023-02-18T08:21:03.707Z,1.9
2023-02-18T08:24:05.641Z,1.8
2023-02-18T08:27:07.625Z,1.7
2023-02-18T08:30:09.662Z,2.2
2023-02-18T08:33:11.561Z,2.1
2023-02-18T08:36:13.526Z,2
2023-02-18T08:39:15.494Z,1.8
2023-02-18T08:42:17.430Z,1.8
2023-02-18T08:45:19.392Z,1.6
2023-02-18T08:48:21.366Z,1.6
2023-02-18T08:51:23.320Z,2
2023-02-18T08:54:25.276Z,2
2023-02-18T08:57:27.234Z,1.8
2023-02-18T09:00:29.204Z,2.2
2023-02-18T09:03:31.165Z,2
2023-02-18T09:06:33.154Z,2.1
2023-02-18T09:09:35.066Z,1.8
2023-02-18T09:12:37.038Z,1.8
2023-02-18T09:15:39.021Z,1.5
2023-02-18T09:18:40.961Z,1.6
2023-02-18T09:21:42.935Z,1.4
2023-02-18T09:24:44.884Z,1.6
2023-02-18T09:27:46.834Z,1.6
2023-02-18T09:30:48.857Z,1.3
2023-02-18T09:33:50.738Z,1
2023-02-18T09:36:52.705Z,1.3
2023-02-18T09:39:54.678Z,1.2
2023-02-18T09:42:56.637Z,1.4
2023-02-18T09:45:58.614Z,1.3
2023-02-18T09:49:00.555Z,1.3
2023-02-18T09:52:02.509Z,1.1
2023-02-18T09:55:04.561Z,1.4
2023-02-18T09:58:06.441Z,1.3
2023-02-18T10:01:08.731Z,1.1
2023-02-18T10:04:10.367Z,1.4
2023-02-18T10:07:12.321Z,1.2
2023-02-18T10:10:14.333Z,1.1
2023-02-18T10:13:16.250Z,0.9
2023-02-18T10:16:18.249Z,0.9
2023-02-18T10:19:20.198Z,0.8
2023-02-18T10:22:22.132Z,0.8
2023-02-18T10:25:24.088Z,0.7
2023-02-18T10:28:26.046Z,0.5
2023-02-18T10:31:28.126Z,0.6
2023-02-18T10:34:29.980Z,0.6
2023-02-18T10:37:31.940Z,0.6
2023-02-18T10:40:33.913Z,0.5
2023-02-18T10:43:35.888Z,0.6
2023-02-18T10:46:37.952Z,0.4
2023-02-18T10:49:39.796Z,0.4
2023-02-18T10:52:41.760Z,0.5
2023-02-18T10:55:43.719Z,0.5
2023-02-18T10:58:45.730Z,0.5
2023-02-18T11:01:47.654Z,0.4
2023-02-18T11:04:49.666Z,0.5
2023-02-18T11:07:51.574Z,0.3
2023-02-18T11:10:53.554Z,0.5
2023-02-18T11:13:55.496Z,0.4
2023-02-18T11:16:57.475Z,0.4
2023-02-18T11:19:59.415Z,0.4
2023-02-18T11:23:01.391Z,0.5
2023-02-18T11:26:03.361Z,0.3
2023-02-18T11:29:05.282Z,0.4
2023-02-18T11:32:07.369Z,0.5
2023-02-18T11:35:09.282Z,0.6
2023-02-18T11:38:11.187Z,0.4
2023-02-18T11:41:13.146Z,0.4
2023-02-18T11:44:15.106Z,0.9
2023-02-18T11:47:17.098Z,0.6
2023-02-18T11:50:19.036Z,0.4
2023-02-18T11:53:21.029Z,0.7
2023-02-18T11:56:22.973Z,0.9
2023-02-18T11:59:24.927Z,0.7
2023-02-18T12:02:26.901Z,0.8
2023-02-18T12:05:28.930Z,1.2
2023-02-18T12:08:30.806Z,1.1
2023-02-18T12:11:32.766Z,0.8
2023-02-18T12:14:34.728Z,0.8
2023-02-18T12:17:36.690Z,0.7
2023-02-18T12:20:38.669Z,1.2
2023-02-18T12:23:40.607Z,1
2023-02-18T12:26:42.574Z,1
2023-02-18T12:29:44.532Z,1.6
2023-02-18T12:32:46.507Z,1.5
2023-02-18T12:35:48.455Z,1.2
2023-02-18T12:38:50.430Z,2.9
2023-02-18T12:41:52.394Z,1.5
2023-02-18T12:44:54.330Z,1.3
2023-02-18T12:47:56.291Z,1
2023-02-18T12:50:58.255Z,2.7
2023-02-18T12:54:00.209Z,1.5
2023-02-18T12:57:02.183Z,1.3
2023-02-18T13:00:04.166Z,1.4
2023-02-18T13:03:06.120Z,1.4
2023-02-18T13:06:08.219Z,1.2
2023-02-18T13:09:10.045Z,1.3
2023-02-18T13:12:11.995Z,1.2
2023-02-18T13:15:13.958Z,1.4
2023-02-18T13:18:15.920Z,1.1
2023-02-18T13:21:17.886Z,1.2
2023-02-18T13:24:19.884Z,1.7
2023-02-18T13:27:21.830Z,1.8
2023-02-18T13:30:23.861Z,1.2
2023-02-18T13:33:25.752Z,1.5
2023-02-18T13:36:27.690Z,1.2
2023-02-18T13:39:29.660Z,1.3
2023-02-18T13:42:31.666Z,1.1
2023-02-18T13:45:33.596Z,1.3
2023-02-18T13:48:35.531Z,1.4
2023-02-18T13:51:37.522Z,1.3
2023-02-18T13:54:39.452Z,6.1
2023-02-18T13:57:41.406Z,3.7
2023-02-18T14:00:43.368Z,4.1
2023-02-18T14:03:45.340Z,2.3
2023-02-18T14:06:47.369Z,2.1
2023-02-18T14:09:49.280Z,1.7
2023-02-18T14:12:51.985Z,1.8
2023-02-18T14:15:53.304Z,1.4
2023-02-18T14:18:55.160Z,1.8
2023-02-18T14:21:57.251Z,1.5
2023-02-18T14:24:59.118Z,1.8
2023-02-18T14:28:01.074Z,1.6
2023-02-18T14:31:03.127Z,1.5
2023-02-18T14:34:05.013Z,1.5
2023-02-18T14:37:06.958Z,1.4
2023-02-18T14:40:08.926Z,1.5
2023-02-18T14:43:10.894Z,1.3
2023-02-18T14:46:12.884Z,1.5
2023-02-18T14:49:14.807Z,1.4
2023-02-18T14:52:16.760Z,1.5
2023-02-18T14:55:18.726Z,1.5
2023-02-18T14:58:20.696Z,1.4
2023-02-18T15:01:22.706Z,1.3
2023-02-18T15:04:24.629Z,1.2
2023-02-18T15:07:26.599Z,1.1
2023-02-18T15:10:28.549Z,1.4
2023-02-18T15:13:30.505Z,1.4
2023-02-18T15:16:32.482Z,1.4
2023-02-18T15:19:34.427Z,1.4
2023-02-18T15:22:36.421Z,1.3
2023-02-18T15:25:38.353Z,1.3
2023-02-18T15:28:40.330Z,1.2
2023-02-18T15:31:42.344Z,1.1
2023-02-18T15:34:44.241Z,1.1
2023-02-18T15:37:46.241Z,1.6
2023-02-18T15:40:48.157Z,2.4
2023-02-18T15:43:50.098Z,2.2
2023-02-18T15:46:52.063Z,2.5
2023-02-18T15:49:54.030Z,1.7
2023-02-18T15:52:55.971Z,1.6
2023-02-18T15:55:58.016Z,1.2
2023-02-18T15:58:59.924Z,1.4
2023-02-18T16:02:01.938Z,1.4
2023-02-18T16:05:05.356Z,1.2
2023-02-18T16:08:05.817Z,1
2023-02-18T16:11:07.964Z,1.3
2023-02-18T16:14:09.730Z,1.4
2023-02-18T16:17:11.696Z,1.3
2023-02-18T16:20:13.708Z,1.1
2023-02-18T16:23:15.624Z,0.9
2023-02-18T16:26:17.576Z,0.8
2023-02-18T16:29:19.543Z,0.8
2023-02-18T16:32:21.562Z,0.8
2023-02-18T16:35:23.471Z,1
2023-02-18T16:38:25.442Z,1
2023-02-18T16:41:27.383Z,1
2023-02-18T16:44:29.367Z,0.8
2023-02-18T16:47:31.316Z,0.8
2023-02-18T16:50:33.286Z,1.1
2023-02-18T16:53:35.254Z,1.1
2023-02-18T16:56:37.213Z,1
2023-02-18T16:59:39.171Z,1.2
2023-02-18T17:02:41.140Z,0.9
2023-02-18T17:05:43.369Z,1
2023-02-18T17:08:45.090Z,1.1
2023-02-18T17:11:47.076Z,0.9
2023-02-18T17:14:49.020Z,1.1
2023-02-18T17:17:50.992Z,1.1
2023-02-18T17:20:52.972Z,1.1
2023-02-18T17:23:54.901Z,1
2023-02-18T17:26:56.871Z,1.1
2023-02-18T17:29:58.840Z,1.1
2023-02-18T17:33:02.997Z,0.9
2023-02-18T17:36:02.758Z,1
2023-02-18T17:39:04.799Z,1.2
2023-02-18T17:42:06.648Z,1
2023-02-18T17:45:08.636Z,1.1
2023-02-18T17:48:10.605Z,1.3
2023-02-18T17:51:12.556Z,1.1
2023-02-18T17:54:14.536Z,1.1
2023-02-18T17:57:16.468Z,1.5
2023-02-18T18:00:18.460Z,1.5
2023-02-18T18:03:20.493Z,1.3
2023-02-18T18:06:22.404Z,1.4
2023-02-18T18:09:24.399Z,1.4
2023-02-18T18:12:26.338Z,1.5
2023-02-18T18:15:28.320Z,1.1
2023-02-18T18:18:30.300Z,1.5
2023-02-18T18:21:32.248Z,1.4
2023-02-18T18:24:34.227Z,1.3
2023-02-18T18:27:36.174Z,1.4
2023-02-18T18:30:38.194Z,1.6
2023-02-18T18:33:40.139Z,1.9
2023-02-18T18:36:42.086Z,1.8
2023-02-18T18:39:44.043Z,2.1
2023-02-18T18:42:45.999Z,1.8
2023-02-18T18:45:48.011Z,2
2023-02-18T18:48:49.916Z,1.8
2023-02-18T18:51:51.884Z,2.1
2023-02-18T18:54:53.868Z,1.7
2023-02-18T18:57:55.838Z,1.4
2023-02-18T19:00:57.896Z,1.9
2023-02-18T19:03:59.830Z,1.6
2023-02-18T19:07:01.713Z,1.6
2023-02-18T19:10:03.683Z,1.7
2023-02-18T19:13:05.651Z,1.9
2023-02-18T19:16:07.717Z,1.7
2023-02-18T19:19:09.574Z,2
2023-02-18T19:22:11.543Z,2
2023-02-18T19:25:13.580Z,1.5
2023-02-18T19:28:15.483Z,2.2
2023-02-18T19:31:17.494Z,1.7
2023-02-18T19:34:19.404Z,1.5
2023-02-18T19:37:23.278Z,1.5
2023-02-18T19:40:23.330Z,1.3
2023-02-18T19:43:25.275Z,1.4
2023-02-18T19:46:27.268Z,1.4
2023-02-18T19:49:29.211Z,1.4
2023-02-18T19:52:31.161Z,1.6
2023-02-18T19:55:33.154Z,1.5
2023-02-18T19:58:35.108Z,1.5
2023-02-18T20:01:37.158Z,1.6
2023-02-18T20:04:39.040Z,1.2
2023-02-18T20:07:41.014Z,1.4
2023-02-18T20:10:42.960Z,1.3
2023-02-18T20:13:44.951Z,1.8
2023-02-18T20:16:46.907Z,1.5
2023-02-18T20:19:48.861Z,1.7
2023-02-18T20:22:50.836Z,1.9
2023-02-18T20:25:52.791Z,1.9
2023-02-18T20:28:54.759Z,1.9
2023-02-18T20:31:56.779Z,1.9
2023-02-18T20:34:58.683Z,2
2023-02-18T20:38:00.652Z,2
2023-02-18T20:41:02.616Z,2
2023-02-18T20:44:04.573Z,2
2023-02-18T20:47:06.522Z,2
2023-02-18T20:50:08.485Z,2.2
2023-02-18T20:53:10.461Z,2.4
2023-02-18T20:56:12.428Z,2.1
2023-02-18T20:59:14.364Z,2.3
2023-02-18T21:02:16.339Z,2.3
2023-02-18T21:05:18.276Z,2.8
2023-02-18T21:08:20.259Z,2.9
2023-02-18T21:11:22.225Z,2.8
2023-02-18T21:14:24.190Z,2.5
2023-02-18T21:17:26.155Z,2.6
2023-02-18T21:20:28.127Z,2.6
2023-02-18T21:23:30.078Z,2.5
2023-02-18T21:26:32.090Z,2.9
2023-02-18T21:29:34.021Z,3.2
2023-02-18T21:32:36.056Z,2.8
2023-02-18T21:35:37.936Z,3.2
2023-02-18T21:38:39.927Z,2.6
2023-02-18T21:41:41.872Z,2.9
2023-02-18T21:44:43.888Z,2.7
2023-02-18T21:47:45.785Z,3.2
2023-02-18T21:50:47.727Z,3.1
2023-02-18T21:53:49.712Z,3.5
2023-02-18T21:56:51.696Z,3.4
2023-02-18T21:59:53.636Z,3.1
2023-02-18T22:02:55.578Z,3.2
2023-02-18T22:05:57.585Z,3.1
2023-02-18T22:08:59.508Z,3.3
2023-02-18T22:12:01.496Z,3.2
2023-02-18T22:15:03.477Z,4
2023-02-18T22:18:05.373Z,3.2
2023-02-18T22:21:07.505Z,3.2
2023-02-18T22:24:09.313Z,3.5
2023-02-18T22:27:11.269Z,3
2023-02-18T22:30:13.265Z,3
2023-02-18T22:33:15.179Z,3.8
2023-02-18T22:36:17.127Z,3.4
2023-02-18T22:39:19.114Z,3.3
2023-02-18T22:42:21.054Z,3.2
2023-02-18T22:45:23.016Z,3
2023-02-18T22:48:24.977Z,3.1
2023-02-18T22:51:26.943Z,4
2023-02-18T22:54:28.904Z,3.5
2023-02-18T22:57:30.849Z,3.4
2023-02-18T23:00:32.843Z,3.7
2023-02-18T23:03:35.043Z,2.7
2023-02-18T23:06:36.791Z,2.7
2023-02-18T23:09:38.696Z,3.9
2023-02-18T23:12:40.704Z,3.7
2023-02-18T23:15:42.629Z,3.6
2023-02-18T23:18:44.648Z,3.9
2023-02-18T23:21:46.579Z,3
2023-02-18T23:24:48.534Z,3.6
2023-02-18T23:27:50.507Z,3.3
2023-02-18T23:30:52.476Z,3.8
2023-02-18T23:33:54.431Z,3.5
2023-02-18T23:36:56.404Z,3
2023-02-18T23:39:58.363Z,2.8
2023-02-18T23:43:00.323Z,2.8
2023-02-18T23:46:02.378Z,3.2
2023-02-18T23:49:04.255Z,3
2023-02-18T23:52:06.203Z,3.8
2023-02-18T23:55:08.181Z,3.2
2023-02-18T23:58:10.136Z,3.1
